createdAt,value
2023-04-29T00:00:23.762Z,14.4
2023-04-29T00:30:08.563Z,13.9
2023-04-29T01:00:18.736Z,14
2023-04-29T01:30:19.298Z,14.1
2023-04-29T02:00:11.137Z,13.8
2023-04-29T02:30:27.344Z,13.5
2023-04-29T03:00:12.192Z,13.9
2023-04-29T03:30:27.806Z,13.5
2023-04-29T04:00:20.287Z,13.6
2023-04-29T04:30:05.617Z,12.3
2023-04-29T05:00:07.021Z,11.7
2023-04-29T05:30:02.429Z,11.6
2023-04-29T06:00:09.173Z,12.3
2023-04-29T06:30:09.979Z,12.2
2023-04-29T07:00:09.324Z,13.7
2023-04-29T07:30:01.571Z,13.2
2023-04-29T08:00:17.348Z,14.9
2023-04-29T08:30:02.453Z,15.1
2023-04-29T09:00:11.001Z,14.3
2023-04-29T09:30:25.320Z,15.4
2023-04-29T10:30:20.713Z,16.4
2023-04-29T11:00:14.679Z,17
2023-04-29T11:30:28.736Z,18.1
2023-04-29T12:00:14.096Z,20.7
2023-04-29T12:30:21.722Z,23
2023-04-29T13:00:22.124Z,23
2023-04-29T13:30:14.038Z,22.8
2023-04-29T13:59:59.867Z,24.1
2023-04-29T14:30:22.237Z,27.7
2023-04-29T15:00:18.068Z,26.3
2023-04-29T15:30:03.018Z,27
2023-04-29T16:00:26.196Z,20.8
2023-04-29T16:30:11.549Z,19
2023-04-29T17:00:26.830Z,18.7
2023-04-29T17:30:04.109Z,16.4
2023-04-29T18:00:20.079Z,16.3
2023-04-29T18:30:04.920Z,15.7
2023-04-29T19:00:27.217Z,14.1
2023-04-29T19:30:23.090Z,13.8
2023-04-29T20:00:23.166Z,13.6
2023-04-29T20:30:14.525Z,13.1
2023-04-29T21:00:00.937Z,13.3
2023-04-29T21:30:01.088Z,12.8
2023-04-29T22:00:01.080Z,12.1
2023-04-29T22:30:23.692Z,12.5
2023-04-29T23:00:08.928Z,12.2
2023-04-29T23:30:00.948Z,11.8
